sensor_id;sensor_type;location;lat;lon;timestamp;temperature;humidity
19192;DHT22;9728;48.194;16.346;2023-02-28T00:03:35;10.20;56.30
19192;DHT22;9728;48.194;16.346;2023-02-28T00:08:39;10.20;56.30
19192;DHT22;9728;48.194;16.346;2023-02-28T00:13:44;10.20;56.40
19192;DHT22;9728;48.194;16.346;2023-02-28T00:18:51;10.20;56.40
19192;DHT22;9728;48.194;16.346;2023-02-28T00:23:54;10.20;56.40
19192;DHT22;9728;48.194;16.346;2023-02-28T00:28:57;10.10;56.40
19192;DHT22;9728;48.194;16.346;2023-02-28T00:34:02;10.10;56.30
19192;DHT22;9728;48.194;16.346;2023-02-28T00:39:06;10.10;56.30
19192;DHT22;9728;48.194;16.346;2023-02-28T00:44:09;10.00;56.30
19192;DHT22;9728;48.194;16.346;2023-02-28T00:49:14;10.00;56.30
19192;DHT22;9728;48.194;16.346;2023-02-28T00:54:18;10.00;56.40
19192;DHT22;9728;48.194;16.346;2023-02-28T00:59:22;10.00;56.40
19192;DHT22;9728;48.194;16.346;2023-02-28T01:04:27;10.00;56.30
19192;DHT22;9728;48.194;16.346;2023-02-28T01:09:31;9.90;56.30
19192;DHT22;9728;48.194;16.346;2023-02-28T01:14:35;9.90;56.30
19192;DHT22;9728;48.194;16.346;2023-02-28T01:19:40;9.90;56.40
19192;DHT22;9728;48.194;16.346;2023-02-28T01:24:44;9.80;56.40
19192;DHT22;9728;48.194;16.346;2023-02-28T01:29:50;9.80;56.40
19192;DHT22;9728;48.194;16.346;2023-02-28T01:34:56;9.80;56.40
19192;DHT22;9728;48.194;16.346;2023-02-28T01:40:00;9.80;56.40
19192;DHT22;9728;48.194;16.346;2023-02-28T01:45:16;9.70;56.30
19192;DHT22;9728;48.194;16.346;2023-02-28T01:50:25;9.70;56.40
19192;DHT22;9728;48.194;16.346;2023-02-28T01:55:30;9.60;56.40
19192;DHT22;9728;48.194;16.346;2023-02-28T02:00:33;9.60;56.50
19192;DHT22;9728;48.194;16.346;2023-02-28T02:05:40;9.60;56.60
19192;DHT22;9728;48.194;16.346;2023-02-28T02:10:45;9.60;56.60
19192;DHT22;9728;48.194;16.346;2023-02-28T02:16:00;9.60;56.60
19192;DHT22;9728;48.194;16.346;2023-02-28T02:27:18;9.60;56.70
19192;DHT22;9728;48.194;16.346;2023-02-28T02:38:18;9.60;56.80
19192;DHT22;9728;48.194;16.346;2023-02-28T02:43:26;9.60;56.70
19192;DHT22;9728;48.194;16.346;2023-02-28T02:48:34;9.60;56.80
19192;DHT22;9728;48.194;16.346;2023-02-28T02:53:43;9.60;56.70
19192;DHT22;9728;48.194;16.346;2023-02-28T02:58:49;9.60;56.80
19192;DHT22;9728;48.194;16.346;2023-02-28T03:03:56;9.60;56.70
19192;DHT22;9728;48.194;16.346;2023-02-28T03:09:02;9.50;56.70
19192;DHT22;9728;48.194;16.346;2023-02-28T03:14:26;9.60;56.80
19192;DHT22;9728;48.194;16.346;2023-02-28T03:19:45;9.50;56.90
19192;DHT22;9728;48.194;16.346;2023-02-28T03:24:56;9.50;56.80
19192;DHT22;9728;48.194;16.346;2023-02-28T03:30:06;9.50;56.70
19192;DHT22;9728;48.194;16.346;2023-02-28T03:35:14;9.50;56.70
19192;DHT22;9728;48.194;16.346;2023-02-28T03:40:30;9.50;56.80
19192;DHT22;9728;48.194;16.346;2023-02-28T03:45:37;9.50;56.90
19192;DHT22;9728;48.194;16.346;2023-02-28T03:50:43;9.50;56.80
19192;DHT22;9728;48.194;16.346;2023-02-28T03:55:52;9.40;56.80
19192;DHT22;9728;48.194;16.346;2023-02-28T04:01:00;9.40;56.90
19192;DHT22;9728;48.194;16.346;2023-02-28T04:06:15;9.50;57.00
19192;DHT22;9728;48.194;16.346;2023-02-28T04:11:24;9.40;57.00
19192;DHT22;9728;48.194;16.346;2023-02-28T04:16:31;9.40;57.00
19192;DHT22;9728;48.194;16.346;2023-02-28T04:21:38;9.40;57.00
19192;DHT22;9728;48.194;16.346;2023-02-28T04:26:44;9.40;57.00
19192;DHT22;9728;48.194;16.346;2023-02-28T04:31:48;9.40;57.00
19192;DHT22;9728;48.194;16.346;2023-02-28T04:36:52;9.40;57.10
19192;DHT22;9728;48.194;16.346;2023-02-28T04:42:15;9.40;57.10
19192;DHT22;9728;48.194;16.346;2023-02-28T04:47:18;9.40;57.10
19192;DHT22;9728;48.194;16.346;2023-02-28T04:52:22;9.40;57.10
19192;DHT22;9728;48.194;16.346;2023-02-28T04:57:27;9.40;57.20
19192;DHT22;9728;48.194;16.346;2023-02-28T05:02:34;9.40;57.30
19192;DHT22;9728;48.194;16.346;2023-02-28T05:07:38;9.40;57.30
19192;DHT22;9728;48.194;16.346;2023-02-28T05:12:43;9.40;57.20
19192;DHT22;9728;48.194;16.346;2023-02-28T05:17:46;9.40;57.30
19192;DHT22;9728;48.194;16.346;2023-02-28T05:22:50;9.40;57.30
19192;DHT22;9728;48.194;16.346;2023-02-28T05:27:56;9.40;57.30
19192;DHT22;9728;48.194;16.346;2023-02-28T05:33:02;9.40;57.40
19192;DHT22;9728;48.194;16.346;2023-02-28T05:38:06;9.40;57.30
19192;DHT22;9728;48.194;16.346;2023-02-28T05:43:12;9.40;57.40
19192;DHT22;9728;48.194;16.346;2023-02-28T05:48:15;9.40;57.40
19192;DHT22;9728;48.194;16.346;2023-02-28T05:53:20;9.30;57.30
19192;DHT22;9728;48.194;16.346;2023-02-28T05:58:25;9.30;57.40
19192;DHT22;9728;48.194;16.346;2023-02-28T06:03:32;9.30;57.50
19192;DHT22;9728;48.194;16.346;2023-02-28T06:08:36;9.20;57.50
19192;DHT22;9728;48.194;16.346;2023-02-28T06:13:41;9.20;57.60
19192;DHT22;9728;48.194;16.346;2023-02-28T06:18:44;9.20;57.70
19192;DHT22;9728;48.194;16.346;2023-02-28T06:23:48;9.20;57.70
19192;DHT22;9728;48.194;16.346;2023-02-28T06:28:53;9.10;57.70
19192;DHT22;9728;48.194;16.346;2023-02-28T06:33:57;9.10;57.90
19192;DHT22;9728;48.194;16.346;2023-02-28T06:39:00;9.10;57.90
19192;DHT22;9728;48.194;16.346;2023-02-28T06:44:10;9.00;57.90
19192;DHT22;9728;48.194;16.346;2023-02-28T06:49:17;9.00;58.00
19192;DHT22;9728;48.194;16.346;2023-02-28T06:54:21;9.00;58.00
19192;DHT22;9728;48.194;16.346;2023-02-28T06:59:26;9.00;58.00
19192;DHT22;9728;48.194;16.346;2023-02-28T07:04:29;9.00;58.20
19192;DHT22;9728;48.194;16.346;2023-02-28T07:09:33;9.00;58.10
19192;DHT22;9728;48.194;16.346;2023-02-28T07:14:38;9.10;58.30
19192;DHT22;9728;48.194;16.346;2023-02-28T07:19:42;9.00;58.30
19192;DHT22;9728;48.194;16.346;2023-02-28T07:24:45;9.10;58.40
19192;DHT22;9728;48.194;16.346;2023-02-28T07:29:50;9.20;58.40
19192;DHT22;9728;48.194;16.346;2023-02-28T07:34:54;9.20;58.50
19192;DHT22;9728;48.194;16.346;2023-02-28T07:39:57;9.20;58.40
19192;DHT22;9728;48.194;16.346;2023-02-28T07:45:03;9.20;58.50
19192;DHT22;9728;48.194;16.346;2023-02-28T07:50:09;9.30;58.70
19192;DHT22;9728;48.194;16.346;2023-02-28T07:55:13;9.40;58.70
19192;DHT22;9728;48.194;16.346;2023-02-28T08:00:20;9.40;58.60
19192;DHT22;9728;48.194;16.346;2023-02-28T08:05:24;9.50;58.70
19192;DHT22;9728;48.194;16.346;2023-02-28T08:10:28;9.60;58.70
19192;DHT22;9728;48.194;16.346;2023-02-28T08:15:32;9.60;58.60
19192;DHT22;9728;48.194;16.346;2023-02-28T08:20:36;9.70;58.80
19192;DHT22;9728;48.194;16.346;2023-02-28T08:25:39;9.70;59.40
19192;DHT22;9728;48.194;16.346;2023-02-28T08:30:45;9.80;58.70
19192;DHT22;9728;48.194;16.346;2023-02-28T08:35:48;9.90;58.70
19192;DHT22;9728;48.194;16.346;2023-02-28T08:40:57;10.00;58.70
19192;DHT22;9728;48.194;16.346;2023-02-28T08:46:04;10.20;58.90
19192;DHT22;9728;48.194;16.346;2023-02-28T08:51:09;10.30;58.80
19192;DHT22;9728;48.194;16.346;2023-02-28T08:56:14;10.40;58.70
19192;DHT22;9728;48.194;16.346;2023-02-28T09:08:20;10.60;58.80
19192;DHT22;9728;48.194;16.346;2023-02-28T09:13:24;10.70;58.50
19192;DHT22;9728;48.194;16.346;2023-02-28T09:18:28;10.80;58.60
19192;DHT22;9728;48.194;16.346;2023-02-28T09:23:33;11.00;58.70
19192;DHT22;9728;48.194;16.346;2023-02-28T09:28:36;11.10;58.60
19192;DHT22;9728;48.194;16.346;2023-02-28T09:33:40;11.20;58.80
19192;DHT22;9728;48.194;16.346;2023-02-28T09:38:45;11.40;58.80
19192;DHT22;9728;48.194;16.346;2023-02-28T09:43:53;11.60;58.80
19192;DHT22;9728;48.194;16.346;2023-02-28T09:48:57;11.80;58.70
19192;DHT22;9728;48.194;16.346;2023-02-28T09:54:03;12.00;58.70
19192;DHT22;9728;48.194;16.346;2023-02-28T09:59:15;12.10;58.70
19192;DHT22;9728;48.194;16.346;2023-02-28T10:04:34;12.40;58.40
19192;DHT22;9728;48.194;16.346;2023-02-28T10:09:41;12.60;58.10
19192;DHT22;9728;48.194;16.346;2023-02-28T10:14:47;12.70;57.90
19192;DHT22;9728;48.194;16.346;2023-02-28T10:19:58;12.80;57.70
19192;DHT22;9728;48.194;16.346;2023-02-28T10:25:18;12.90;57.50
19192;DHT22;9728;48.194;16.346;2023-02-28T10:30:22;12.90;57.60
19192;DHT22;9728;48.194;16.346;2023-02-28T10:35:26;13.10;57.90
19192;DHT22;9728;48.194;16.346;2023-02-28T10:40:33;13.20;57.80
19192;DHT22;9728;48.194;16.346;2023-02-28T10:45:37;13.40;57.70
19192;DHT22;9728;48.194;16.346;2023-02-28T10:50:43;13.60;57.80
19192;DHT22;9728;48.194;16.346;2023-02-28T10:55:56;13.80;57.80
19192;DHT22;9728;48.194;16.346;2023-02-28T11:01:00;14.00;57.50
19192;DHT22;9728;48.194;16.346;2023-02-28T11:06:11;14.30;57.90
19192;DHT22;9728;48.194;16.346;2023-02-28T11:11:17;14.50;57.20
19192;DHT22;9728;48.194;16.346;2023-02-28T11:16:22;14.70;57.10
19192;DHT22;9728;48.194;16.346;2023-02-28T11:21:36;14.90;56.90
19192;DHT22;9728;48.194;16.346;2023-02-28T11:26:45;15.10;56.80
19192;DHT22;9728;48.194;16.346;2023-02-28T11:32:12;15.30;56.50
19192;DHT22;9728;48.194;16.346;2023-02-28T11:37:18;15.50;56.20
19192;DHT22;9728;48.194;16.346;2023-02-28T11:42:35;15.70;56.50
19192;DHT22;9728;48.194;16.346;2023-02-28T11:47:47;15.90;55.80
19192;DHT22;9728;48.194;16.346;2023-02-28T11:52:53;16.00;55.60
19192;DHT22;9728;48.194;16.346;2023-02-28T11:58:20;16.20;55.60
19192;DHT22;9728;48.194;16.346;2023-02-28T12:03:33;16.30;54.30
19192;DHT22;9728;48.194;16.346;2023-02-28T12:08:49;16.30;54.70
19192;DHT22;9728;48.194;16.346;2023-02-28T12:14:06;16.40;54.60
19192;DHT22;9728;48.194;16.346;2023-02-28T12:19:18;16.40;54.30
19192;DHT22;9728;48.194;16.346;2023-02-28T12:24:44;16.50;54.20
19192;DHT22;9728;48.194;16.346;2023-02-28T12:29:55;16.50;53.60
19192;DHT22;9728;48.194;16.346;2023-02-28T12:35:03;16.50;53.90
19192;DHT22;9728;48.194;16.346;2023-02-28T12:40:12;16.50;54.00
19192;DHT22;9728;48.194;16.346;2023-02-28T12:45:19;16.40;53.60
19192;DHT22;9728;48.194;16.346;2023-02-28T12:50:24;16.30;53.60
19192;DHT22;9728;48.194;16.346;2023-02-28T12:55:33;16.30;53.80
19192;DHT22;9728;48.194;16.346;2023-02-28T13:00:55;16.20;53.20
19192;DHT22;9728;48.194;16.346;2023-02-28T13:06:10;16.10;52.90
19192;DHT22;9728;48.194;16.346;2023-02-28T13:11:25;16.00;52.80
19192;DHT22;9728;48.194;16.346;2023-02-28T13:17:11;15.90;52.70
19192;DHT22;9728;48.194;16.346;2023-02-28T13:22:20;15.70;52.30
19192;DHT22;9728;48.194;16.346;2023-02-28T13:27:40;15.60;52.90
19192;DHT22;9728;48.194;16.346;2023-02-28T13:32:46;15.50;53.20
19192;DHT22;9728;48.194;16.346;2023-02-28T13:37:49;15.30;53.10
19192;DHT22;9728;48.194;16.346;2023-02-28T13:42:54;15.30;53.20
19192;DHT22;9728;48.194;16.346;2023-02-28T13:48:02;15.20;53.10
19192;DHT22;9728;48.194;16.346;2023-02-28T13:53:34;15.10;52.80
19192;DHT22;9728;48.194;16.346;2023-02-28T13:58:46;15.00;52.40
19192;DHT22;9728;48.194;16.346;2023-02-28T14:04:12;14.90;52.90
19192;DHT22;9728;48.194;16.346;2023-02-28T14:09:23;14.80;52.40
19192;DHT22;9728;48.194;16.346;2023-02-28T14:14:53;14.70;52.80
19192;DHT22;9728;48.194;16.346;2023-02-28T14:19:58;14.60;52.40
19192;DHT22;9728;48.194;16.346;2023-02-28T14:25:10;14.60;53.10
19192;DHT22;9728;48.194;16.346;2023-02-28T14:30:52;14.50;52.90
19192;DHT22;9728;48.194;16.346;2023-02-28T14:36:10;14.50;52.70
19192;DHT22;9728;48.194;16.346;2023-02-28T14:41:27;14.50;52.90
19192;DHT22;9728;48.194;16.346;2023-02-28T14:46:36;14.40;53.00
19192;DHT22;9728;48.194;16.346;2023-02-28T14:51:42;14.40;53.20
19192;DHT22;9728;48.194;16.346;2023-02-28T14:56:49;14.40;53.50
19192;DHT22;9728;48.194;16.346;2023-02-28T15:02:17;14.40;53.30
19192;DHT22;9728;48.194;16.346;2023-02-28T15:07:23;14.30;53.00
19192;DHT22;9728;48.194;16.346;2023-02-28T15:12:30;14.30;53.40
19192;DHT22;9728;48.194;16.346;2023-02-28T15:17:34;14.30;53.50
19192;DHT22;9728;48.194;16.346;2023-02-28T15:22:40;14.30;53.60
19192;DHT22;9728;48.194;16.346;2023-02-28T15:27:46;14.30;53.50
19192;DHT22;9728;48.194;16.346;2023-02-28T15:33:15;14.30;53.60
19192;DHT22;9728;48.194;16.346;2023-02-28T15:38:25;14.30;53.20
19192;DHT22;9728;48.194;16.346;2023-02-28T15:43:30;14.20;53.30
19192;DHT22;9728;48.194;16.346;2023-02-28T15:48:36;14.20;53.50
19192;DHT22;9728;48.194;16.346;2023-02-28T15:53:48;14.10;53.40
19192;DHT22;9728;48.194;16.346;2023-02-28T15:58:54;14.10;53.30
19192;DHT22;9728;48.194;16.346;2023-02-28T16:04:01;14.00;53.50
19192;DHT22;9728;48.194;16.346;2023-02-28T16:09:10;13.90;53.50
19192;DHT22;9728;48.194;16.346;2023-02-28T16:14:16;13.90;53.50
19192;DHT22;9728;48.194;16.346;2023-02-28T16:19:20;13.80;53.50
19192;DHT22;9728;48.194;16.346;2023-02-28T16:24:27;13.80;53.70
19192;DHT22;9728;48.194;16.346;2023-02-28T16:29:33;13.80;53.60
19192;DHT22;9728;48.194;16.346;2023-02-28T16:34:40;13.80;53.70
19192;DHT22;9728;48.194;16.346;2023-02-28T16:39:46;13.70;53.70
19192;DHT22;9728;48.194;16.346;2023-02-28T16:44:53;13.70;53.70
19192;DHT22;9728;48.194;16.346;2023-02-28T16:49:58;13.60;53.70
19192;DHT22;9728;48.194;16.346;2023-02-28T16:55:04;13.60;53.70
19192;DHT22;9728;48.194;16.346;2023-02-28T17:00:13;13.60;53.60
19192;DHT22;9728;48.194;16.346;2023-02-28T17:05:17;13.50;53.50
19192;DHT22;9728;48.194;16.346;2023-02-28T17:10:25;13.50;53.70
19192;DHT22;9728;48.194;16.346;2023-02-28T17:15:29;13.50;53.70
19192;DHT22;9728;48.194;16.346;2023-02-28T17:20:34;13.40;53.80
19192;DHT22;9728;48.194;16.346;2023-02-28T17:25:49;13.40;53.80
19192;DHT22;9728;48.194;16.346;2023-02-28T17:30:59;13.30;53.80
19192;DHT22;9728;48.194;16.346;2023-02-28T17:36:04;13.30;53.80
19192;DHT22;9728;48.194;16.346;2023-02-28T17:41:11;13.30;53.80
19192;DHT22;9728;48.194;16.346;2023-02-28T17:46:17;13.30;53.90
19192;DHT22;9728;48.194;16.346;2023-02-28T17:51:24;13.30;53.90
19192;DHT22;9728;48.194;16.346;2023-02-28T17:56:36;13.30;53.90
19192;DHT22;9728;48.194;16.346;2023-02-28T18:01:41;13.20;54.40
19192;DHT22;9728;48.194;16.346;2023-02-28T18:06:45;13.20;54.10
19192;DHT22;9728;48.194;16.346;2023-02-28T18:11:59;13.20;54.00
19192;DHT22;9728;48.194;16.346;2023-02-28T18:17:04;13.20;53.90
19192;DHT22;9728;48.194;16.346;2023-02-28T18:22:10;13.20;54.00
19192;DHT22;9728;48.194;16.346;2023-02-28T18:27:16;13.20;54.00
19192;DHT22;9728;48.194;16.346;2023-02-28T18:32:21;13.10;54.00
19192;DHT22;9728;48.194;16.346;2023-02-28T18:37:28;13.10;53.90
19192;DHT22;9728;48.194;16.346;2023-02-28T18:42:35;13.00;54.70
19192;DHT22;9728;48.194;16.346;2023-02-28T18:47:41;13.00;54.10
19192;DHT22;9728;48.194;16.346;2023-02-28T18:52:47;12.90;53.90
19192;DHT22;9728;48.194;16.346;2023-02-28T18:57:56;12.90;53.90
19192;DHT22;9728;48.194;16.346;2023-02-28T19:03:02;12.80;53.70
19192;DHT22;9728;48.194;16.346;2023-02-28T19:08:09;12.80;55.90
19192;DHT22;9728;48.194;16.346;2023-02-28T19:13:16;12.80;55.40
19192;DHT22;9728;48.194;16.346;2023-02-28T19:18:23;12.80;54.70
19192;DHT22;9728;48.194;16.346;2023-02-28T19:23:30;12.80;54.60
19192;DHT22;9728;48.194;16.346;2023-02-28T19:28:39;12.80;54.30
19192;DHT22;9728;48.194;16.346;2023-02-28T19:33:50;12.70;54.10
19192;DHT22;9728;48.194;16.346;2023-02-28T19:38:57;12.70;54.10
19192;DHT22;9728;48.194;16.346;2023-02-28T19:44:07;12.70;54.10
19192;DHT22;9728;48.194;16.346;2023-02-28T19:49:16;12.70;54.00
19192;DHT22;9728;48.194;16.346;2023-02-28T19:54:23;12.60;54.20
19192;DHT22;9728;48.194;16.346;2023-02-28T19:59:31;12.50;54.10
19192;DHT22;9728;48.194;16.346;2023-02-28T20:04:41;12.50;54.10
19192;DHT22;9728;48.194;16.346;2023-02-28T20:09:47;12.40;54.10
19192;DHT22;9728;48.194;16.346;2023-02-28T20:14:55;12.40;54.50
19192;DHT22;9728;48.194;16.346;2023-02-28T20:20:00;12.40;54.40
19192;DHT22;9728;48.194;16.346;2023-02-28T20:25:06;12.30;54.40
19192;DHT22;9728;48.194;16.346;2023-02-28T20:30:16;12.30;54.60
19192;DHT22;9728;48.194;16.346;2023-02-28T20:35:24;12.30;55.50
19192;DHT22;9728;48.194;16.346;2023-02-28T20:40:29;12.30;55.10
19192;DHT22;9728;48.194;16.346;2023-02-28T20:45:36;12.30;54.90
19192;DHT22;9728;48.194;16.346;2023-02-28T20:50:47;12.40;54.80
19192;DHT22;9728;48.194;16.346;2023-02-28T20:55:54;12.40;54.60
19192;DHT22;9728;48.194;16.346;2023-02-28T21:01:02;12.40;54.70
19192;DHT22;9728;48.194;16.346;2023-02-28T21:06:07;12.40;54.60
19192;DHT22;9728;48.194;16.346;2023-02-28T21:11:14;12.40;54.50
19192;DHT22;9728;48.194;16.346;2023-02-28T21:16:24;12.40;54.50
19192;DHT22;9728;48.194;16.346;2023-02-28T21:21:33;12.30;54.40
19192;DHT22;9728;48.194;16.346;2023-02-28T21:26:39;12.30;54.50
19192;DHT22;9728;48.194;16.346;2023-02-28T21:31:49;12.30;54.60
19192;DHT22;9728;48.194;16.346;2023-02-28T21:36:52;12.30;54.50
19192;DHT22;9728;48.194;16.346;2023-02-28T21:41:56;12.30;54.50
19192;DHT22;9728;48.194;16.346;2023-02-28T21:47:06;12.30;54.50
19192;DHT22;9728;48.194;16.346;2023-02-28T21:52:10;12.20;54.30
19192;DHT22;9728;48.194;16.346;2023-02-28T21:57:14;12.20;54.40
19192;DHT22;9728;48.194;16.346;2023-02-28T22:02:19;12.10;54.40
19192;DHT22;9728;48.194;16.346;2023-02-28T22:07:22;12.00;54.30
19192;DHT22;9728;48.194;16.346;2023-02-28T22:12:28;12.00;54.40
19192;DHT22;9728;48.194;16.346;2023-02-28T22:17:34;12.00;54.30
19192;DHT22;9728;48.194;16.346;2023-02-28T22:22:38;12.00;54.30
19192;DHT22;9728;48.194;16.346;2023-02-28T22:27:41;11.90;54.40
19192;DHT22;9728;48.194;16.346;2023-02-28T22:32:46;11.90;54.40
19192;DHT22;9728;48.194;16.346;2023-02-28T22:37:50;11.80;54.40
19192;DHT22;9728;48.194;16.346;2023-02-28T22:42:54;11.80;54.50
19192;DHT22;9728;48.194;16.346;2023-02-28T22:47:59;11.80;54.50
19192;DHT22;9728;48.194;16.346;2023-02-28T22:53:04;11.70;54.50
19192;DHT22;9728;48.194;16.346;2023-02-28T22:58:07;11.60;54.50
19192;DHT22;9728;48.194;16.346;2023-02-28T23:03:12;11.60;54.50
19192;DHT22;9728;48.194;16.346;2023-02-28T23:08:16;11.60;54.50
19192;DHT22;9728;48.194;16.346;2023-02-28T23:13:24;11.50;54.60
19192;DHT22;9728;48.194;16.346;2023-02-28T23:18:29;11.50;54.60
19192;DHT22;9728;48.194;16.346;2023-02-28T23:23:33;11.50;54.70
19192;DHT22;9728;48.194;16.346;2023-02-28T23:28:37;11.40;54.70
19192;DHT22;9728;48.194;16.346;2023-02-28T23:33:42;11.40;54.70
19192;DHT22;9728;48.194;16.346;2023-02-28T23:38:48;11.30;54.70
19192;DHT22;9728;48.194;16.346;2023-02-28T23:43:53;11.30;54.70
19192;DHT22;9728;48.194;16.346;2023-02-28T23:48:59;11.30;54.80
19192;DHT22;9728;48.194;16.346;2023-02-28T23:54:02;11.20;54.80
19192;DHT22;9728;48.194;16.346;2023-02-28T23:59:06;11.20;54.90
